2 juli 2022

Tijd Code Weer Temp. Zicht Plafond Wind METAR/SPECI
9:50 a.m.
V
68 °F 6¼ mi+ - 200° 200° 6 kt METAR EDLW 020750Z 20006KT 150V240 CAVOK 20/09 Q1023
9:20 a.m.
V
68 °F 6¼ mi+ - 180° 180° 6 kt METAR EDLW 020720Z 18006KT 150V220 CAVOK 20/11 Q1023
8:50 a.m.
V
64 °F 6¼ mi+ - 150° 150° 6 kt METAR EDLW 020650Z 15006KT 110V190 CAVOK 18/10 Q1023
8:20 a.m.
V
63 °F 6¼ mi+ - 160° 160° 6 kt METAR EDLW 020620Z 16006KT CAVOK 17/11 Q1023
7:50 a.m.
V
61 °F 6¼ mi+ - 160° 160° 7 kt METAR EDLW 020550Z 16007KT CAVOK 16/10 Q1022
7:20 a.m.
V
57 °F 6¼ mi+ - 150° 150° 7 kt METAR EDLW 020520Z 15007KT CAVOK 14/10 Q1022
6:50 a.m.
V
55 °F 6¼ mi+ - 160° 160° 8 kt METAR EDLW 020450Z 16008KT CAVOK 13/09 Q1022
6:20 a.m.
V
54 °F 6¼ mi+ - 160° 160° 8 kt METAR EDLW 020420Z 16008KT CAVOK 12/09 Q1022
5:50 a.m.
V
52 °F 6¼ mi+ - 160° 160° 8 kt METAR EDLW 020350Z 16008KT CAVOK 11/09 Q1022
5:20 a.m.
V
52 °F 6¼ mi+ - 160° 160° 7 kt METAR EDLW 020320Z 16007KT CAVOK 11/09 Q1022
4:50 a.m.
V
52 °F 6¼ mi+ - 160° 160° 7 kt METAR EDLW 020250Z AUTO 16007KT 9999 // NCD 11/09 Q1022
4:20 a.m.
V
54 °F 6¼ mi+ - 150° 150° 7 kt METAR EDLW 020220Z AUTO 15007KT 9999 // NCD 12/09 Q1022
3:50 a.m.
V
54 °F 6¼ mi+ - 150° 150° 7 kt METAR EDLW 020150Z AUTO 15007KT 9999 // NCD 12/09 Q1022
3:20 a.m.
V
54 °F 6¼ mi+ - 150° 150° 7 kt METAR EDLW 020120Z AUTO 15007KT 9999 // NCD 12/09 Q1022
2:50 a.m.
V
54 °F 6¼ mi+ - 160° 160° 7 kt METAR EDLW 020050Z AUTO 16007KT 9999 // NCD 12/09 Q1022
2:20 a.m.
V
55 °F 6¼ mi+ - 150° 150° 6 kt METAR EDLW 020020Z AUTO 15006KT 9999 // NCD 13/09 Q1022
1:50 a.m.
V
54 °F 6¼ mi+ - 160° 160° 6 kt METAR EDLW 012350Z AUTO 16006KT 9999 // NCD 12/09 Q1022
1:20 a.m.
V
54 °F 6¼ mi+ - 150° 150° 5 kt METAR EDLW 012320Z AUTO 15005KT 9999 // NCD 12/08 Q1022
12:50 a.m.
V
54 °F 6¼ mi+ - 170° 170° 5 kt METAR EDLW 012250Z AUTO 17005KT 9999 // NCD 12/08 Q1022
12:20 a.m.
V
54 °F 6¼ mi+ - 170° 170° 5 kt METAR EDLW 012220Z AUTO 17005KT 9999 // FEW054/// 12/08 Q1022

1 juli 2022

Tijd Code Weer Temp. Zicht Plafond Wind METAR/SPECI
11:50 p.m.
V
55 °F 6¼ mi+ - 210° 210° 4 kt METAR EDLW 012150Z AUTO 21004KT 9999 // SCT054/// 13/09 Q1022
11:20 p.m.
V
55 °F 6¼ mi+ - 220° 220° 3 kt METAR EDLW 012120Z AUTO 22003KT 9999 // NCD 13/09 Q1021
10:50 p.m.
V
59 °F 6¼ mi+ - 250° 250° 2 kt METAR EDLW 012050Z 25002KT CAVOK 15/09 Q1021
10:20 p.m.
V
61 °F 6¼ mi+ - 270° 270° 3 kt METAR EDLW 012020Z 27003KT 240V320 CAVOK 16/09 Q1021
9:50 p.m.
V
61 °F 6¼ mi+ - 260° 260° 3 kt METAR EDLW 011950Z 26003KT 230V310 CAVOK 16/08 Q1020
9:20 p.m.
V
63 °F 6¼ mi+ - 230° 230° 7 kt METAR EDLW 011920Z 23007KT CAVOK 17/09 Q1020
8:50 p.m.
V
64 °F 6¼ mi+ - 230° 230° 7 kt METAR EDLW 011850Z 23007KT CAVOK 18/09 Q1019
8:20 p.m.
V
66 °F 6¼ mi+ - 240° 240° 7 kt METAR EDLW 011820Z 24007KT CAVOK 19/08 Q1019
7:50 p.m.
V
68 °F 6¼ mi+ - 230° 230° 7 kt METAR EDLW 011750Z 23007KT CAVOK 20/08 Q1019
7:20 p.m.
V
70 °F 6¼ mi+ - 250° 250° 9 kt METAR EDLW 011720Z 25009KT 220V290 CAVOK 21/08 Q1019
6:50 p.m.
V
68 °F 6¼ mi+ - 240° 240° 9 kt METAR EDLW 011650Z 24009KT 220V280 CAVOK 20/08 Q1019
6:20 p.m.
V
68 °F 6¼ mi+ - 240° 240° 10 kt METAR EDLW 011620Z 24010KT 220V280 CAVOK 20/08 Q1019
5:50 p.m.
V
72 °F 6¼ mi+ - 260° 260° 7 kt METAR EDLW 011550Z 26007KT 220V310 CAVOK 22/08 Q1018
5:20 p.m.
V
68 °F 6¼ mi+ - 250° 250° 8 kt METAR EDLW 011520Z 25008KT 210V010 CAVOK 20/07 Q1018
4:50 p.m.
V
70 °F 6¼ mi+ - 230° 230° 9 kt METAR EDLW 011450Z 23009KT CAVOK 21/09 Q1018
4:20 p.m.
V
68 °F 6¼ mi+ - 220° 220° 11 kt METAR EDLW 011420Z 22011KT CAVOK 20/08 Q1018
3:50 p.m.
V
70 °F 6¼ mi+ - 240° 240° 9 kt METAR EDLW 011350Z 24009KT 200V280 CAVOK 21/08 Q1018
3:20 p.m.
V
70 °F 6¼ mi+ - 240° 240° 11 kt METAR EDLW 011320Z 24011KT 9999 SCT048 21/09 Q1018
2:50 p.m.
V
68 °F 6¼ mi+ - 250° 250° 8 kt METAR EDLW 011250Z 25008KT 230V300 9999 SCT046 20/09 Q1018
2:20 p.m.
V
68 °F 6¼ mi+ - 230° 230° 10 kt METAR EDLW 011220Z 23010KT 9999 FEW042 20/09 Q1018
1:50 p.m.
V
64 °F 6¼ mi+ - 220° 220° 10 kt METAR EDLW 011150Z 22010KT 190V260 9999 SCT033 18/10 Q1018
1:20 p.m.
V
66 °F 6¼ mi+ - 230° 230° 9 kt METAR EDLW 011120Z 23009KT 200V260 CAVOK 19/12 Q1018
12:50 p.m.
V
63 °F 6¼ mi+ - 220° 220° 10 kt METAR EDLW 011050Z 22010KT 9999 FEW029 SCT039 17/11 Q1018
12:20 p.m.
V
64 °F 6¼ mi+ - 250° 250° 6 kt METAR EDLW 011020Z 25006KT 210V320 9999 FEW028 18/11 Q1018
11:50 a.m.
V
61 °F 6¼ mi+ - 230° 230° 8 kt METAR EDLW 010950Z 23008KT 190V250 9999 FEW022 SCT035 16/11 Q1018
11:20 a.m.
V
61 °F 6¼ mi+ - 220° 220° 9 kt METAR EDLW 010920Z 22009KT 9999 FEW021 16/11 Q1018
10:50 a.m.
V
61 °F 6¼ mi+ - 230° 230° 8 kt METAR EDLW 010850Z 23008KT 9999 FEW016 SCT019 16/12 Q1018
10:20 a.m.
M
59 °F 6¼ mi+ 2.200 ft 250° 250° 7 kt METAR EDLW 010820Z 25007KT 220V290 9999 SCT016 BKN022 BKN027 15/12 Q1017
9:50 a.m.
M
59 °F 6¼ mi+ 1.900 ft 230° 230° 8 kt METAR EDLW 010750Z 23008KT 9999 SCT016 BKN019 OVC022 15/12 Q1017
9:20 a.m.
M
59 °F 6¼ mi+ 2.200 ft 230° 230° 6 kt METAR EDLW 010720Z 23006KT 190V260 9999 SCT012 SCT018 BKN022 15/11 Q1017
8:50 a.m.
M
57 °F 6¼ mi+ 2.500 ft 230° 230° 8 kt METAR EDLW 010650Z 23008KT 9999 SCT012 SCT016 BKN025 14/12 Q1017
8:20 a.m.
M
57 °F 6¼ mi+ 2.500 ft 230° 230° 6 kt METAR EDLW 010620Z 23006KT 9999 SCT013 BKN025 14/12 Q1016
7:50 a.m.
M
57 °F 6¼ mi+ 1.200 ft 240° 240° 7 kt METAR EDLW 010550Z 24007KT 9999 BKN012 BKN019 14/12 Q1016
7:20 a.m.
M
57 °F 6¼ mi+ 1.500 ft 240° 240° 7 kt METAR EDLW 010520Z 24007KT 9999 SCT013 BKN015 14/12 Q1016
6:50 a.m.
V
55 °F 6¼ mi+ - 230° 230° 9 kt METAR EDLW 010450Z 23009KT 9999 FEW012 SCT036 13/11 Q1016
6:20 a.m.
V
55 °F 6¼ mi+ - 230° 230° 8 kt METAR EDLW 010420Z 23008KT 9999 FEW028 SCT032 13/11 Q1016
5:50 a.m.
V
55 °F 6¼ mi+ 3.100 ft 220° 220° 9 kt METAR EDLW 010350Z 22009KT 9999 -RA FEW025 BKN031 OVC035 13/12 Q1016
5:20 a.m.
M
57 °F 6¼ mi+ 2.900 ft 220° 220° 10 kt METAR EDLW 010320Z 22010KT 9999 FEW011 OVC029 14/12 Q1016
4:50 a.m.
M
57 °F 6¼ mi+ 2.200 ft 220° 220° 10 kt METAR EDLW 010250Z AUTO 22010KT 9999 // FEW011/// OVC022/// 14/12 Q1015
4:20 a.m.
M
57 °F 6¼ mi+ 1.400 ft 220° 220° 9 kt METAR EDLW 010220Z AUTO 22009KT 9999 // FEW010/// BKN014/// OVC019/// 14/12 Q1015
3:50 a.m.
M
57 °F 6¼ mi+ 1.800 ft 230° 230° 9 kt METAR EDLW 010150Z AUTO 23009KT 9999 // FEW011/// SCT015/// BKN018/// 14/12 Q1015
3:20 a.m.
M
57 °F 6¼ mi+ 1.600 ft 230° 230° 6 kt METAR EDLW 010120Z AUTO 23006KT 9999 // FEW011/// BKN016/// OVC053/// 14/12 Q1015
2:50 a.m.
M
57 °F 6¼ mi+ 1.000 ft 230° 230° 6 kt METAR EDLW 010050Z AUTO 23006KT 9999 // BKN010/// BKN034/// BKN140/// 14/12 Q1015
2:20 a.m.
M
57 °F 6¼ mi+ 1.900 ft 250° 250° 9 kt METAR EDLW 010020Z AUTO 25009KT 9999 // SCT010/// BKN019/// OVC029/// 14/12 Q1014
1:50 a.m.
M
57 °F 6¼ mi+ 1.000 ft 240° 240° 8 kt METAR EDLW 302350Z AUTO 24008KT 9999 // BKN010/// OVC017/// 14/12 Q1015
1:20 a.m.
M
57 °F 6¼ mi+ 1.200 ft 240° 240° 10 kt METAR EDLW 302320Z AUTO 24010KT 9999 // OVC012/// 14/12 Q1014
12:50 a.m.
V
57 °F 6¼ mi+ 4.300 ft 240° 240° 8 kt METAR EDLW 302250Z AUTO 24008KT 210V280 9999 // SCT011/// BKN043/// 14/13 Q1014
12:20 a.m.
M
57 °F 6¼ mi+ 1.100 ft 230° 230° 10 kt METAR EDLW 302220Z AUTO 23010KT 9999 // BKN011/// OVC036/// 14/13 Q1014

30 juni 2022

Tijd Code Weer Temp. Zicht Plafond Wind METAR/SPECI
11:50 p.m.
M
59 °F 6¼ mi+ 1.100 ft 240° 240° 7 kt METAR EDLW 302150Z AUTO 24007KT 220V280 9999 // BKN011/// OVC030/// 15/13 Q1014
11:20 p.m.
I
59 °F 6¼ mi+ 900 ft 250° 250° 9 kt METAR EDLW 302120Z AUTO 25009KT 210V280 9999 // BKN009/// OVC025/// 15/13 Q1013
10:50 p.m.
I
59 °F 6¼ mi+ 900 ft 240° 240° 13 kt METAR EDLW 302050Z 24013KT 9999 OVC009 15/13 Q1013
10:20 p.m.
I
59 °F 6¼ mi+ 900 ft 260° 260° 10 kt METAR EDLW 302020Z 26010KT 9999 OVC009 15/14 Q1012
9:50 p.m.
I
61 °F 6¼ mi+ 900 ft 250° 250° 14 kt METAR EDLW 301950Z 25014KT 9999 FEW007 OVC009 16/14 Q1012
9:20 p.m.
I
63 °F 5⅝ mi 700 ft 230° 230° 13 kt METAR EDLW 301920Z 23013KT 9000 -SHRA VCTS OVC007CB 17/16 Q1011 RETSRA
8:50 p.m.
M
66 °F 6¼ mi+ 1.000 ft 240° 240° 16 kt METAR EDLW 301850Z 24016KT 9999 -SHRA VCTS BKN010CB 19/17 Q1011
8:20 p.m.
V
70 °F 6¼ mi+ - 240° 240° 11 - 21 kt METAR EDLW 301820Z 24011G21KT 210V280 9999 VCSH FEW034CB 21/16 Q1009
7:50 p.m.
V
81 °F 6¼ mi+ - 070° 070° 8 kt METAR EDLW 301750Z 07008KT 9999 VCTS SCT048CB 27/14 Q1007
7:20 p.m.
V
82 °F 6¼ mi+ - 060° 060° 8 kt METAR EDLW 301720Z 06008KT CAVOK 28/14 Q1007
6:50 p.m.
V
82 °F 6¼ mi+ - 060° 060° 9 kt METAR EDLW 301650Z 06009KT CAVOK 28/13 Q1007
6:20 p.m.
V
84 °F 6¼ mi+ - 040° 040° 8 kt METAR EDLW 301620Z 04008KT 010V080 CAVOK 29/14 Q1007
5:50 p.m.
V
84 °F 6¼ mi+ - 080° 080° 7 kt METAR EDLW 301550Z 08007KT 010V120 CAVOK 29/14 Q1008
5:20 p.m.
V
86 °F 6¼ mi+ - 070° 070° 7 kt METAR EDLW 301520Z 07007KT 040V100 CAVOK 30/14 Q1008
4:50 p.m.
V
86 °F 6¼ mi+ - 050° 050° 6 kt METAR EDLW 301450Z 05006KT 350V110 CAVOK 30/14 Q1009
4:20 p.m.
V
86 °F 6¼ mi+ - 020° 020° 5 kt METAR EDLW 301420Z 02005KT 300V100 CAVOK 30/13 Q1009
3:50 p.m.
V
86 °F 6¼ mi+ - 030° 030° 4 kt METAR EDLW 301350Z 03004KT 340V070 CAVOK 30/12 Q1009
3:20 p.m.
V
86 °F 6¼ mi+ - Var Var 3 kt METAR EDLW 301320Z VRB03KT CAVOK 30/12 Q1010
2:50 p.m.
V
84 °F 6¼ mi+ - Var Var 2 kt METAR EDLW 301250Z VRB02KT CAVOK 29/12 Q1010
2:20 p.m.
V
82 °F 6¼ mi+ - Var Var 4 kt METAR EDLW 301220Z VRB04KT CAVOK 28/13 Q1010
1:50 p.m.
V
82 °F 6¼ mi+ - Var Var 4 kt METAR EDLW 301150Z VRB04KT CAVOK 28/13 Q1010
1:20 p.m.
V
81 °F 6¼ mi+ - Var Var 4 kt METAR EDLW 301120Z VRB04KT CAVOK 27/14 Q1010
12:50 p.m.
V
82 °F 6¼ mi+ - 300° 300° 4 kt METAR EDLW 301050Z 30004KT 230V030 CAVOK 28/15 Q1011
12:20 p.m.
V
82 °F 6¼ mi+ - 330° 330° 4 kt METAR EDLW 301020Z 33004KT 240V030 CAVOK 28/15 Q1011
11:50 a.m.
V
81 °F 6¼ mi+ - Var Var 3 kt METAR EDLW 300950Z VRB03KT CAVOK 27/13 Q1011
11:20 a.m.
V
81 °F 6¼ mi+ - Var Var 3 kt METAR EDLW 300920Z VRB03KT CAVOK 27/17 Q1011
10:50 a.m.
V
81 °F 6¼ mi+ - Var Var 3 kt METAR EDLW 300850Z VRB03KT CAVOK 27/19 Q1011
Oudere gegevens

Installeer onze app

Gemakkelijke toegang tot al het luchtvaartweer op je mobiele telefoon en tablet.
Met veel functies die niet op de website beschikbaar zijn, zoals offline ondersteuning en een persoonlijke lijst van vliegvelden.

Met cookies volgen wij en derde partijen jouw internetgedrag binnen onze site. Als je verdergaat gaan we ervan uit dat je dit goedvindt. Meer info